Time;durP1;ratioP1;P1;durP2;ratioP2;P2;SDS_P1;SDS_P2;PMS_P1;PMS_P2;Temp;Humidity;BMP_temperature;BMP_pressure;BME280_temperature;BME280_humidity;BME280_pressure;Samples;Min_cycle;Max_cycle;Signal;HPM_P1;HPM_P2
2023/10/28 00:26:30;;;;;;;2.95;0.50;;;20.20;99.90;;;;;;5059466;28;20194;-79
2023/10/28 00:29:33;;;;;;;1.17;0.50;;;20.30;99.90;;;;;;5072543;28;20204;-80
2023/10/28 01:03:59;;;;;;;1.77;0.70;;;21.80;99.50;;;;;;5065631;22;20239;-93
2023/10/28 01:06:30;;;;;;;2.33;0.90;;;21.70;99.90;;;;;;5037028;28;20232;-92
2023/10/28 01:09:01;;;;;;;3.72;0.90;;;21.70;99.80;;;;;;5052303;28;20676;-93
2023/10/28 01:11:33;;;;;;;2.00;0.77;;;21.60;99.90;;;;;;5069034;28;20205;-93
2023/10/28 01:14:04;;;;;;;1.45;0.52;;;21.50;99.20;;;;;;5054943;28;20215;-92
2023/10/28 01:16:36;;;;;;;3.65;0.90;;;21.40;98.50;;;;;;5061210;28;20720;-93
2023/10/28 01:19:10;;;;;;;3.45;0.80;;;21.40;98.40;;;;;;5066749;28;20286;-93
2023/10/28 01:21:44;;;;;;;4.85;0.73;;;21.30;99.80;;;;;;5041612;28;20219;-92
2023/10/28 01:24:15;;;;;;;3.92;0.73;;;21.20;99.50;;;;;;5056184;28;20700;-93
2023/10/28 01:26:46;;;;;;;2.10;0.50;;;21.20;99.90;;;;;;5054835;28;20628;-93
2023/10/28 01:29:18;;;;;;;3.53;0.70;;;21.10;99.90;;;;;;5067056;28;20215;-92
2023/10/28 01:31:49;;;;;;;1.60;0.50;;;21.10;99.90;;;;;;5076220;28;20212;-93
2023/10/28 01:34:21;;;;;;;2.40;0.50;;;21.00;99.90;;;;;;5076272;28;20196;-92
2023/10/28 01:36:57;;;;;;;2.38;0.70;;;21.00;99.90;;;;;;5075320;28;20246;-91
2023/10/28 01:39:28;;;;;;;3.85;0.85;;;21.00;99.90;;;;;;5049462;28;20574;-92
2023/10/28 01:41:59;;;;;;;1.98;0.73;;;20.90;99.90;;;;;;5062871;28;20653;-93
2023/10/28 01:44:34;;;;;;;3.97;0.80;;;21.00;99.90;;;;;;5066121;28;20224;-91
2023/10/28 01:47:08;;;;;;;3.40;0.80;;;21.00;99.90;;;;;;5058419;28;20695;-93
2023/10/28 01:49:39;;;;;;;3.58;0.75;;;21.00;99.90;;;;;;5053983;28;20215;-92
2023/10/28 01:52:15;;;;;;;5.45;0.80;;;21.00;99.90;;;;;;5068889;28;20200;-92
2023/10/28 01:54:47;;;;;;;2.85;0.63;;;21.10;99.90;;;;;;5055496;28;20212;-93
2023/10/28 01:57:19;;;;;;;2.38;0.68;;;21.10;99.90;;;;;;5048131;28;20200;-94
2023/10/28 01:59:51;;;;;;;2.75;0.70;;;21.10;99.90;;;;;;5054892;28;20212;-93
2023/10/28 02:02:22;;;;;;;2.85;0.82;;;21.00;99.90;;;;;;5055355;28;20231;-93
2023/10/28 02:04:53;;;;;;;2.67;0.70;;;21.00;99.90;;;;;;5055212;28;20236;-93
2023/10/28 02:07:27;;;;;;;1.48;0.57;;;21.00;99.90;;;;;;5052805;28;20317;-92
2023/10/28 02:09:58;;;;;;;4.13;0.85;;;21.00;99.90;;;;;;5041892;28;20230;-94
2023/10/28 02:12:29;;;;;;;5.50;0.70;;;21.10;99.90;;;;;;5035701;28;20220;-93
2023/10/28 02:15:00;;;;;;;4.70;0.88;;;21.20;99.90;;;;;;5051238;28;20214;-94
2023/10/28 02:17:31;;;;;;;3.00;0.50;;;21.20;99.90;;;;;;5055027;28;20280;-94
2023/10/28 02:20:04;;;;;;;2.97;0.70;;;21.30;99.90;;;;;;5056079;28;20204;-92
2023/10/28 02:22:37;;;;;;;2.03;0.60;;;21.30;99.90;;;;;;5054886;28;20306;-93
2023/10/28 02:25:08;;;;;;;1.92;0.60;;;21.30;99.90;;;;;;5059403;28;20330;-92
2023/10/28 02:27:40;;;;;;;2.47;0.57;;;21.30;99.90;;;;;;5054563;28;20196;-92
2023/10/28 02:30:13;;;;;;;1.73;0.40;;;21.40;99.90;;;;;;5054214;28;20283;-94
2023/10/28 02:32:44;;;;;;;2.70;0.60;;;21.60;98.50;;;;;;5034930;28;20204;-92
2023/10/28 02:35:15;;;;;;;2.25;0.50;;;21.60;97.90;;;;;;5059068;28;20223;-92
2023/10/28 02:37:49;;;;;;;1.58;0.30;;;21.70;97.20;;;;;;5074159;28;20207;-93
2023/10/28 02:40:19;;;;;;;5.55;0.60;;;21.70;97.20;;;;;;5070380;28;20214;-93
2023/10/28 02:42:50;;;;;;;1.65;0.50;;;21.80;96.50;;;;;;5071945;28;20232;-92
2023/10/28 02:45:21;;;;;;;3.20;0.75;;;21.90;97.30;;;;;;5038072;28;20227;-93
2023/10/28 02:47:54;;;;;;;2.72;0.70;;;22.10;97.90;;;;;;5050505;28;20212;-92
2023/10/28 02:50:25;;;;;;;3.20;0.63;;;22.40;97.90;;;;;;5053711;28;20211;-92
2023/10/28 02:53:00;;;;;;;2.90;0.52;;;22.60;96.80;;;;;;5053426;28;20212;-92
2023/10/28 02:55:31;;;;;;;2.95;0.70;;;22.70;96.40;;;;;;5056783;28;20257;-92
2023/10/28 02:58:02;;;;;;;2.40;0.50;;;22.80;96.20;;;;;;5053327;28;20204;-93
2023/10/28 03:00:33;;;;;;;3.30;0.60;;;22.90;96.00;;;;;;5072292;28;20342;-94
2023/10/28 03:03:06;;;;;;;2.42;0.68;;;22.90;95.20;;;;;;5070467;28;20227;-94
2023/10/28 03:05:38;;;;;;;2.65;0.70;;;22.80;95.50;;;;;;5072247;28;20266;-94
2023/10/28 03:08:12;;;;;;;4.43;0.85;;;22.80;96.60;;;;;;5051150;28;20224;-94
2023/10/28 03:10:43;;;;;;;4.45;0.98;;;22.60;97.00;;;;;;5053702;28;20204;-93
2023/10/28 03:13:23;;;;;;;3.45;0.73;;;22.70;98.40;;;;;;5055913;28;20657;-94
2023/10/28 03:15:56;;;;;;;3.42;0.60;;;22.80;99.90;;;;;;5034092;28;20209;-94
2023/10/28 03:18:27;;;;;;;2.35;0.63;;;22.80;99.90;;;;;;5034214;28;20593;-93
2023/10/28 03:20:58;;;;;;;3.47;0.60;;;22.40;99.90;;;;;;5034711;28;20233;-93
2023/10/28 03:23:32;;;;;;;3.92;0.70;;;22.40;99.90;;;;;;5036547;28;20217;-94
2023/10/28 03:26:02;;;;;;;3.47;0.68;;;22.60;99.90;;;;;;5054079;28;20208;-94
2023/10/28 03:28:33;;;;;;;3.15;0.70;;;22.60;99.90;;;;;;5053879;28;20207;-96
2023/10/28 03:31:11;;;;;;;2.08;0.50;;;22.70;99.90;;;;;;5054349;28;20682;-94
2023/10/28 03:33:42;;;;;;;3.22;0.75;;;22.40;99.90;;;;;;5053814;28;20212;-93
2023/10/28 03:36:14;;;;;;;4.60;0.55;;;22.50;99.90;;;;;;5054724;28;20239;-95
2023/10/28 03:38:46;;;;;;;3.30;0.90;;;22.40;99.90;;;;;;5052991;28;20215;-94
2023/10/28 03:41:18;;;;;;;2.75;0.70;;;22.10;99.90;;;;;;5052660;28;20668;-94
2023/10/28 03:43:49;;;;;;;5.72;0.70;;;21.80;99.90;;;;;;5053910;28;20225;-93
2023/10/28 03:46:21;;;;;;;4.25;0.70;;;21.50;99.90;;;;;;5053833;28;20235;-93
2023/10/28 03:48:52;;;;;;;3.53;0.80;;;21.20;99.90;;;;;;5054314;28;20262;-93
2023/10/28 03:51:23;;;;;;;2.53;0.70;;;21.50;99.90;;;;;;5059171;28;20260;-93
2023/10/28 03:53:56;;;;;;;1.83;0.50;;;21.30;99.90;;;;;;5070907;28;20277;-94
2023/10/28 03:56:28;;;;;;;1.73;0.50;;;21.50;99.90;;;;;;5037314;28;20212;-94
2023/10/28 03:59:00;;;;;;;2.60;0.70;;;21.50;99.90;;;;;;5046649;28;20230;-93
2023/10/28 04:01:30;;;;;;;3.88;0.70;;;21.40;99.90;;;;;;5057627;28;20208;-94
2023/10/28 04:04:03;;;;;;;4.65;0.60;;;21.30;99.90;;;;;;5055733;28;20251;-95
2023/10/28 04:06:35;;;;;;;1.60;0.43;;;21.10;99.90;;;;;;5059108;28;20279;-94
2023/10/28 04:09:13;;;;;;;4.63;0.60;;;21.00;99.90;;;;;;5055737;28;20206;-93
2023/10/28 04:11:44;;;;;;;3.58;0.63;;;20.80;99.90;;;;;;5057292;28;20240;-94
2023/10/28 04:14:16;;;;;;;2.47;0.80;;;20.60;99.90;;;;;;5122219;22;20236;-79
2023/10/28 04:16:52;;;;;;;3.67;0.55;;;20.50;99.90;;;;;;5051934;28;20292;-79
2023/10/28 04:19:24;;;;;;;3.35;0.63;;;20.60;99.90;;;;;;5052638;28;20196;-80
2023/10/28 04:21:59;;;;;;;2.10;0.50;;;21.00;99.90;;;;;;5049039;28;20316;-79
2023/10/28 04:24:33;;;;;;;2.38;0.32;;;21.20;99.90;;;;;;5038784;28;20248;-80
2023/10/28 04:27:07;;;;;;;3.22;0.85;;;21.40;99.90;;;;;;5045763;28;20208;-79
2023/10/28 04:29:39;;;;;;;2.30;0.57;;;21.50;99.90;;;;;;5048218;28;20636;-81
2023/10/28 04:32:13;;;;;;;1.65;0.65;;;21.70;99.90;;;;;;5049181;28;20279;-80
2023/10/28 04:34:47;;;;;;;2.70;0.73;;;22.00;99.90;;;;;;5051674;28;20216;-80
2023/10/28 04:37:18;;;;;;;1.98;0.55;;;22.30;99.90;;;;;;5053035;28;20611;-81
2023/10/28 04:40:00;;;;;;;2.92;0.60;;;22.40;99.90;;;;;;5051057;28;20208;-81
2023/10/28 04:42:34;;;;;;;1.13;0.45;;;22.30;99.90;;;;;;5049868;28;20204;-81
2023/10/28 04:45:06;;;;;;;2.92;0.52;;;22.60;99.90;;;;;;5047292;28;20314;-80
2023/10/28 04:47:37;;;;;;;2.55;0.55;;;22.90;99.90;;;;;;5054474;28;20853;-80
2023/10/28 04:50:10;;;;;;;2.88;0.57;;;23.20;99.90;;;;;;5053103;28;20250;-81
2023/10/28 04:52:42;;;;;;;1.10;0.40;;;23.10;99.90;;;;;;5054908;28;20648;-80
2023/10/28 04:55:21;;;;;;;3.80;0.68;;;23.30;99.90;;;;;;5050637;28;20262;-80
2023/10/28 04:58:00;;;;;;;1.85;0.52;;;23.40;99.40;;;;;;5050795;28;20196;-80
2023/10/28 05:00:33;;;;;;;2.63;0.50;;;23.50;98.40;;;;;;5052903;28;20205;-80
2023/10/28 05:03:05;;;;;;;1.33;0.50;;;23.70;97.70;;;;;;5053656;28;20209;-80
2023/10/28 05:05:37;;;;;;;4.07;0.65;;;23.80;96.50;;;;;;5051415;28;20457;-80
2023/10/28 05:08:10;;;;;;;0.80;0.40;;;23.80;96.30;;;;;;5050720;28;20266;-80
2023/10/28 05:10:46;;;;;;;3.10;0.60;;;24.10;96.90;;;;;;5050114;28;20208;-80
2023/10/28 05:13:19;;;;;;;1.27;0.40;;;24.30;95.80;;;;;;5048785;28;20649;-80
2023/10/28 05:15:52;;;;;;;2.38;0.55;;;24.30;95.40;;;;;;5048629;28;20207;-80
2023/10/28 05:18:27;;;;;;;4.57;0.60;;;24.10;96.60;;;;;;5030807;28;20288;-80
2023/10/28 05:20:59;;;;;;;1.77;0.55;;;24.10;97.00;;;;;;5030371;28;20691;-80
2023/10/28 05:23:32;;;;;;;1.63;0.50;;;24.20;97.80;;;;;;5016362;28;20221;-81
2023/10/28 05:26:07;;;;;;;2.75;0.60;;;23.90;96.10;;;;;;5015763;28;20284;-80
2023/10/28 05:28:39;;;;;;;1.70;0.40;;;23.80;98.00;;;;;;5020419;28;20200;-80
2023/10/28 05:31:12;;;;;;;3.13;0.60;;;23.80;99.00;;;;;;5034672;28;20732;-80
2023/10/28 05:33:47;;;;;;;2.72;0.68;;;23.90;99.10;;;;;;5031733;28;20689;-80
2023/10/28 05:36:26;;;;;;;2.42;0.50;;;23.80;99.90;;;;;;5033051;28;20212;-79
2023/10/28 05:39:07;;;;;;;1.45;0.50;;;23.50;99.60;;;;;;5032591;28;20208;-80
2023/10/28 05:41:44;;;;;;;1.77;0.55;;;23.30;99.90;;;;;;5032230;28;20215;-81
2023/10/28 05:44:17;;;;;;;3.63;0.55;;;23.20;99.90;;;;;;5030606;28;20236;-81
2023/10/28 05:46:50;;;;;;;2.17;0.60;;;23.10;99.90;;;;;;5032667;28;20466;-80
2023/10/28 05:49:30;;;;;;;4.07;0.80;;;23.20;99.90;;;;;;5032843;28;20216;-80
2023/10/28 05:52:09;;;;;;;2.55;0.50;;;23.90;99.90;;;;;;5033409;28;20201;-80
2023/10/28 05:54:41;;;;;;;3.70;0.60;;;24.20;98.80;;;;;;5033181;28;20668;-79
2023/10/28 05:57:18;;;;;;;2.92;0.60;;;24.30;97.00;;;;;;5032302;28;20653;-80
2023/10/28 05:59:52;;;;;;;3.92;0.65;;;24.50;96.50;;;;;;5030989;28;20220;-80
2023/10/28 06:02:35;;;;;;;3.58;0.70;;;24.60;97.00;;;;;;5030706;28;20203;-81
2023/10/28 06:05:07;;;;;;;2.35;0.57;;;24.80;95.70;;;;;;5025731;28;20249;-81
2023/10/28 06:07:39;;;;;;;2.97;0.50;;;24.50;94.50;;;;;;5024363;28;20206;-80
2023/10/28 06:10:10;;;;;;;2.75;0.60;;;24.30;94.30;;;;;;5016825;28;20637;-80
2023/10/28 06:12:52;;;;;;;1.70;0.30;;;24.00;94.00;;;;;;5033177;28;20204;-80
2023/10/28 06:15:28;;;;;;;0.95;0.40;;;23.80;94.30;;;;;;5013588;28;20213;-80
2023/10/28 06:18:02;;;;;;;1.83;0.40;;;23.90;94.30;;;;;;5027870;28;20640;-81
2023/10/28 06:20:35;;;;;;;3.10;0.47;;;24.00;93.70;;;;;;5027710;28;20246;-80
2023/10/28 06:23:07;;;;;;;3.85;0.40;;;23.80;93.80;;;;;;5027344;28;20233;-80
2023/10/28 06:25:39;;;;;;;4.78;0.68;;;23.80;94.80;;;;;;5032887;28;20286;-79
2023/10/28 06:28:15;;;;;;;2.38;0.50;;;24.30;94.10;;;;;;5034531;28;20350;-79
2023/10/28 06:30:58;;;;;;;2.70;0.52;;;24.10;93.70;;;;;;5036128;28;20440;-80
2023/10/28 06:33:29;;;;;;;1.27;0.50;;;23.90;93.90;;;;;;5035443;28;20581;-81
2023/10/28 06:36:01;;;;;;;3.95;0.60;;;23.80;93.50;;;;;;5046845;28;20261;-81
2023/10/28 06:38:34;;;;;;;1.25;0.52;;;23.80;92.70;;;;;;5030538;28;20205;-81
2023/10/28 06:41:09;;;;;;;1.15;0.40;;;24.30;92.40;;;;;;5030460;28;20405;-80
2023/10/28 06:43:47;;;;;;;1.23;0.40;;;24.50;91.00;;;;;;5031204;28;20242;-80
2023/10/28 06:46:22;;;;;;;2.10;0.80;;;24.70;90.50;;;;;;5031115;28;20217;-80
2023/10/28 06:48:58;;;;;;;2.95;0.50;;;24.70;89.70;;;;;;5033039;28;20200;-81
2023/10/28 06:51:32;;;;;;;3.85;0.70;;;24.80;87.30;;;;;;5031969;28;20236;-80
2023/10/28 06:54:07;;;;;;;1.85;0.50;;;24.80;89.70;;;;;;5015074;28;20204;-79
2023/10/28 06:56:40;;;;;;;0.73;0.30;;;25.20;88.10;;;;;;5031024;28;20200;-81
2023/10/28 06:59:16;;;;;;;1.95;0.50;;;25.30;86.00;;;;;;5012304;28;20198;-80
2023/10/28 07:01:48;;;;;;;1.92;0.40;;;25.40;85.50;;;;;;5019619;28;20571;-79
2023/10/28 07:04:22;;;;;;;1.88;0.47;;;25.00;85.30;;;;;;5031051;28;20240;-80
2023/10/28 07:06:59;;;;;;;1.10;0.40;;;24.70;85.30;;;;;;5031771;28;20201;-81
2023/10/28 07:09:34;;;;;;;1.25;0.40;;;24.00;88.80;;;;;;5030845;28;20205;-81
2023/10/28 07:12:09;;;;;;;2.25;0.30;;;23.50;90.60;;;;;;5030714;28;20251;-80
2023/10/28 07:14:49;;;;;;;2.05;0.35;;;22.90;91.10;;;;;;5032881;28;20232;-80
2023/10/28 07:17:25;;;;;;;2.78;0.50;;;22.60;91.50;;;;;;5031165;28;20279;-81
2023/10/28 07:20:02;;;;;;;1.17;0.40;;;22.10;92.10;;;;;;5025075;28;20197;-80
2023/10/28 07:22:41;;;;;;;0.52;0.30;;;21.70;92.90;;;;;;5030690;28;20668;-81
2023/10/28 07:25:14;;;;;;;1.60;1.20;;;21.50;93.70;;;;;;5030752;28;20244;-81
2023/10/28 07:27:49;;;;;;;2.47;0.70;;;21.30;94.20;;;;;;5030953;28;20844;-82
2023/10/28 07:30:32;;;;;;;1.40;0.52;;;21.00;96.00;;;;;;5030342;28;20204;-79
2023/10/28 07:33:06;;;;;;;2.08;0.50;;;20.80;96.40;;;;;;5031293;28;20197;-79
2023/10/28 07:35:42;;;;;;;2.40;0.40;;;20.60;97.50;;;;;;5034390;28;20217;-80
2023/10/28 07:38:19;;;;;;;0.95;0.38;;;20.40;98.10;;;;;;5034621;28;20209;-79
2023/10/28 07:41:04;;;;;;;3.35;0.73;;;20.40;99.20;;;;;;5032560;28;20291;-79
2023/10/28 07:43:36;;;;;;;1.45;0.40;;;20.50;99.90;;;;;;5029259;28;20194;-78
2023/10/28 07:46:12;;;;;;;2.60;0.80;;;20.50;99.90;;;;;;5018148;28;20284;-78
2023/10/28 07:48:45;;;;;;;2.53;0.60;;;20.50;99.90;;;;;;5028829;28;20197;-79
2023/10/28 07:51:19;;;;;;;0.90;0.43;;;20.50;99.80;;;;;;5030352;28;20878;-79
2023/10/28 07:53:55;;;;;;;2.67;0.43;;;20.40;99.90;;;;;;5024708;28;20276;-78
2023/10/28 07:56:32;;;;;;;1.67;0.55;;;20.40;99.90;;;;;;5030383;28;20565;-79
2023/10/28 07:59:05;;;;;;;2.53;0.80;;;20.30;99.90;;;;;;5028760;28;20656;-79
2023/10/28 08:01:43;;;;;;;1.52;0.60;;;20.10;99.90;;;;;;5028361;28;20203;-79
2023/10/28 08:04:15;;;;;;;1.95;0.50;;;20.10;99.90;;;;;;5014517;28;20224;-79
2023/10/28 08:06:54;;;;;;;3.60;0.80;;;20.00;99.90;;;;;;5029661;28;20370;-78
2023/10/28 08:09:33;;;;;;;3.40;0.60;;;20.00;99.90;;;;;;5029795;28;20193;-78
2023/10/28 08:12:05;;;;;;;3.75;0.68;;;19.90;99.90;;;;;;5022565;28;20208;-80
2023/10/28 08:14:40;;;;;;;1.60;0.70;;;19.90;99.90;;;;;;5024774;28;20263;-79
2023/10/28 08:17:14;;;;;;;4.80;0.93;;;19.90;99.90;;;;;;5028488;28;20201;-80
2023/10/28 08:19:45;;;;;;;2.15;0.60;;;19.80;99.90;;;;;;5026538;28;20209;-80
2023/10/28 08:22:16;;;;;;;3.20;0.63;;;19.70;99.90;;;;;;5029809;28;20626;-80
2023/10/28 08:24:49;;;;;;;1.38;0.95;;;19.60;99.90;;;;;;5029508;28;20225;-79
2023/10/28 08:27:23;;;;;;;1.95;1.02;;;19.60;99.90;;;;;;5029186;28;20754;-79
2023/10/28 08:30:01;;;;;;;4.32;0.90;;;19.60;99.90;;;;;;5027419;28;20231;-80
2023/10/28 08:32:38;;;;;;;2.30;0.75;;;19.60;99.90;;;;;;5029724;28;20200;-80
2023/10/28 08:35:09;;;;;;;1.85;0.70;;;19.50;99.90;;;;;;5029814;28;20216;-80
2023/10/28 08:37:41;;;;;;;2.47;0.65;;;19.50;99.90;;;;;;5033559;28;20679;-79
2023/10/28 08:40:17;;;;;;;3.80;0.90;;;19.50;99.90;;;;;;5031683;28;20236;-79
2023/10/28 08:42:49;;;;;;;1.08;0.52;;;19.50;99.90;;;;;;5037383;28;20208;-79
2023/10/28 08:45:26;;;;;;;2.25;0.63;;;19.50;99.90;;;;;;5033587;28;20240;-79
2023/10/28 08:48:02;;;;;;;1.33;0.70;;;19.40;99.90;;;;;;5029214;28;20204;-79
2023/10/28 08:50:35;;;;;;;4.85;0.80;;;19.40;99.90;;;;;;5029340;28;20302;-77
2023/10/28 08:53:09;;;;;;;2.03;0.70;;;19.30;99.90;;;;;;5029522;28;20221;-78
2023/10/28 08:55:43;;;;;;;3.35;1.17;;;19.30;99.90;;;;;;5036144;28;20254;-79
2023/10/28 08:58:16;;;;;;;2.10;0.70;;;19.20;99.90;;;;;;5040282;28;20193;-80
2023/10/28 09:00:50;;;;;;;2.40;0.60;;;19.30;99.90;;;;;;5032765;28;20606;-79
2023/10/28 09:03:26;;;;;;;4.72;1.05;;;19.20;99.90;;;;;;5037110;28;20197;-78
2023/10/28 09:05:59;;;;;;;3.88;0.82;;;19.30;99.90;;;;;;5036522;28;20252;-79
2023/10/28 09:08:32;;;;;;;3.45;0.77;;;19.20;99.90;;;;;;5025202;28;20202;-79
2023/10/28 09:11:05;;;;;;;1.77;0.55;;;19.10;99.90;;;;;;5037711;28;20240;-79
2023/10/28 09:13:36;;;;;;;2.20;0.82;;;19.10;99.90;;;;;;5037628;28;20233;-80
2023/10/28 09:16:08;;;;;;;2.75;0.80;;;19.10;99.90;;;;;;5035178;28;20237;-78
2023/10/28 09:18:49;;;;;;;2.83;0.70;;;19.10;99.90;;;;;;5034439;28;20263;-80
2023/10/28 09:21:20;;;;;;;2.03;0.70;;;19.10;99.90;;;;;;5036387;28;20211;-81
2023/10/28 09:23:57;;;;;;;1.85;0.60;;;19.10;99.90;;;;;;5032987;28;20205;-79
2023/10/28 09:26:32;;;;;;;2.30;0.77;;;19.10;99.90;;;;;;5038522;28;20347;-79
2023/10/28 09:29:03;;;;;;;1.58;0.60;;;19.10;99.90;;;;;;5035222;28;20197;-80
2023/10/28 09:31:37;;;;;;;1.20;0.60;;;19.10;99.90;;;;;;5029780;28;20261;-79
2023/10/28 09:34:12;;;;;;;2.63;0.55;;;19.10;99.90;;;;;;5016814;28;20204;-79
2023/10/28 09:36:46;;;;;;;1.30;0.57;;;19.00;99.90;;;;;;5037724;28;20254;-78
2023/10/28 09:39:18;;;;;;;3.92;0.63;;;18.90;99.90;;;;;;5036855;28;20227;-79
2023/10/28 09:41:52;;;;;;;3.58;1.05;;;18.90;99.90;;;;;;5035696;28;20668;-78
2023/10/28 09:44:28;;;;;;;2.60;0.70;;;19.00;99.90;;;;;;5033309;28;20277;-78
2023/10/28 09:47:04;;;;;;;1.80;0.80;;;19.00;99.90;;;;;;5019569;28;20233;-78
2023/10/28 09:49:45;;;;;;;4.18;0.52;;;19.00;99.90;;;;;;5031951;28;20225;-78
2023/10/28 09:52:19;;;;;;;2.45;0.65;;;18.90;99.90;;;;;;5026939;28;20240;-78
2023/10/28 09:55:01;;;;;;;1.88;0.68;;;18.90;99.90;;;;;;5034834;28;20259;-79
2023/10/28 09:57:34;;;;;;;2.17;0.60;;;18.90;99.90;;;;;;5035721;28;20216;-78
2023/10/28 10:00:17;;;;;;;1.83;0.77;;;18.90;99.90;;;;;;5034600;28;20285;-78
2023/10/28 10:03:06;;;;;;;2.33;0.60;;;18.90;99.90;;;;;;5030554;28;20229;-76
2023/10/28 10:05:46;;;;;;;2.15;0.50;;;18.80;99.90;;;;;;5025950;28;20233;-78
2023/10/28 10:08:26;;;;;;;3.72;0.77;;;18.80;99.90;;;;;;5014807;28;20228;-78
2023/10/28 10:11:04;;;;;;;3.22;0.77;;;18.90;99.90;;;;;;5039237;28;20445;-79
2023/10/28 10:13:47;;;;;;;1.48;0.70;;;18.80;99.90;;;;;;5035194;28;20237;-78
2023/10/28 10:16:30;;;;;;;2.30;0.80;;;18.90;99.90;;;;;;5037034;28;20202;-79
2023/10/28 10:19:13;;;;;;;3.85;0.70;;;18.90;99.90;;;;;;5035612;28;20212;-78
2023/10/28 10:21:57;;;;;;;1.23;0.47;;;18.90;99.90;;;;;;5034358;28;20217;-77
2023/10/28 10:24:32;;;;;;;0.82;0.50;;;18.90;99.90;;;;;;5034126;28;20276;-77
2023/10/28 10:27:10;;;;;;;0.75;0.50;;;18.90;99.90;;;;;;5029388;28;20319;-79
2023/10/28 10:29:46;;;;;;;3.70;0.80;;;18.90;99.90;;;;;;5034667;28;20204;-78
2023/10/28 10:32:27;;;;;;;2.85;0.75;;;18.80;99.90;;;;;;5032105;28;20203;-78
2023/10/28 10:35:00;;;;;;;1.65;0.40;;;18.80;99.90;;;;;;5033094;28;20208;-78
2023/10/28 10:37:42;;;;;;;1.30;0.50;;;18.80;99.90;;;;;;5034716;28;20232;-78
2023/10/28 10:40:21;;;;;;;1.27;0.50;;;18.80;99.90;;;;;;5013453;28;20198;-78
2023/10/28 10:43:04;;;;;;;1.83;0.50;;;18.70;99.90;;;;;;5023364;28;20444;-79
2023/10/28 10:45:38;;;;;;;1.98;0.63;;;18.70;99.90;;;;;;5028194;28;20225;-77
2023/10/28 10:48:12;;;;;;;1.60;0.60;;;18.80;99.90;;;;;;5031705;28;20196;-76
2023/10/28 10:50:48;;;;;;;3.38;0.60;;;18.80;99.90;;;;;;5024004;28;20259;-77
2023/10/28 10:53:25;;;;;;;1.48;0.70;;;18.70;99.90;;;;;;5041089;28;20556;-77
2023/10/28 10:56:03;;;;;;;2.00;0.60;;;18.80;99.90;;;;;;5038831;28;20228;-77
2023/10/28 10:58:42;;;;;;;2.25;0.50;;;18.80;99.90;;;;;;5035947;28;20432;-77
2023/10/28 11:01:15;;;;;;;2.17;0.55;;;18.80;99.90;;;;;;5030408;28;20205;-77
2023/10/28 11:03:50;;;;;;;2.83;0.65;;;18.80;99.90;;;;;;5036251;28;20211;-78
2023/10/28 11:06:29;;;;;;;1.00;0.50;;;18.70;99.90;;;;;;5033492;28;20221;-77
2023/10/28 11:09:12;;;;;;;1.25;0.60;;;18.70;99.90;;;;;;5032259;28;20200;-78
2023/10/28 11:11:49;;;;;;;3.38;0.70;;;18.60;99.90;;;;;;5032307;28;20229;-78
2023/10/28 11:14:23;;;;;;;3.00;0.70;;;18.70;99.90;;;;;;5033272;28;20445;-77
2023/10/28 11:17:01;;;;;;;1.70;0.65;;;18.70;99.90;;;;;;5052321;28;20556;-77
2023/10/28 11:19:37;;;;;;;1.50;0.40;;;18.70;99.90;;;;;;5052914;28;20284;-78
2023/10/28 11:22:12;;;;;;;2.63;0.90;;;18.60;99.90;;;;;;5071456;28;20431;-78
2023/10/28 11:24:49;;;;;;;2.42;0.60;;;18.70;99.90;;;;;;5060062;28;20234;-77
2023/10/28 11:27:26;;;;;;;2.08;0.57;;;18.60;99.90;;;;;;5049141;28;20236;-77
2023/10/28 11:30:03;;;;;;;1.45;0.70;;;18.60;99.90;;;;;;5037013;28;20571;-78
2023/10/28 11:32:46;;;;;;;1.92;0.57;;;18.60;99.90;;;;;;5036432;28;20287;-78
2023/10/28 11:35:24;;;;;;;2.53;0.70;;;18.60;99.90;;;;;;5050218;28;20299;-78
2023/10/28 11:38:04;;;;;;;2.35;0.60;;;18.60;99.90;;;;;;5050122;28;20320;-76
2023/10/28 11:40:41;;;;;;;1.83;0.60;;;18.60;99.90;;;;;;5032275;28;20201;-78
2023/10/28 11:43:19;;;;;;;1.42;0.70;;;18.60;99.90;;;;;;5051130;28;20200;-78
2023/10/28 11:46:07;;;;;;;3.45;0.60;;;18.50;99.90;;;;;;5048033;28;20623;-78
2023/10/28 11:48:44;;;;;;;2.35;0.60;;;18.50;99.90;;;;;;5048908;28;20200;-78
2023/10/28 11:51:17;;;;;;;4.05;0.88;;;18.40;99.90;;;;;;5050208;28;20286;-77
2023/10/28 11:53:49;;;;;;;2.63;0.70;;;18.50;99.90;;;;;;5052388;28;20224;-76
2023/10/28 11:56:22;;;;;;;1.92;0.73;;;18.40;99.90;;;;;;5053086;28;20224;-77
2023/10/28 11:58:52;;;;;;;2.30;0.80;;;18.30;99.90;;;;;;5049845;28;20224;-77
2023/10/28 12:01:29;;;;;;;2.42;0.63;;;18.30;99.90;;;;;;5050551;28;20225;-77
2023/10/28 12:04:07;;;;;;;3.53;0.75;;;18.30;99.90;;;;;;5051678;28;20215;-77
2023/10/28 12:06:42;;;;;;;1.25;0.65;;;18.20;99.90;;;;;;5053418;28;20227;-78
2023/10/28 12:09:19;;;;;;;1.77;0.60;;;18.30;99.90;;;;;;5049985;28;20228;-77
2023/10/28 12:11:53;;;;;;;1.90;0.52;;;18.20;99.90;;;;;;5049226;28;20497;-77
2023/10/28 12:14:32;;;;;;;2.20;0.60;;;18.10;99.90;;;;;;5030173;28;20339;-78
2023/10/28 12:17:05;;;;;;;2.78;0.70;;;18.20;99.90;;;;;;5045724;28;20201;-78
2023/10/28 12:19:45;;;;;;;3.15;0.80;;;18.10;99.90;;;;;;5048572;28;20228;-77
2023/10/28 12:22:18;;;;;;;1.15;0.52;;;18.10;99.90;;;;;;5050119;28;20204;-78
2023/10/28 12:24:51;;;;;;;4.47;0.82;;;18.10;99.90;;;;;;5048670;28;20339;-77
2023/10/28 12:27:32;;;;;;;3.33;1.00;;;18.10;99.90;;;;;;5051306;28;20239;-77
2023/10/28 12:30:09;;;;;;;3.17;0.73;;;18.00;99.90;;;;;;5043212;28;20203;-77
2023/10/28 12:32:44;;;;;;;2.33;0.88;;;18.00;99.90;;;;;;5041662;28;20199;-77
2023/10/28 12:35:16;;;;;;;3.72;0.98;;;18.00;99.90;;;;;;5048717;28;20197;-78
2023/10/28 12:37:49;;;;;;;5.72;1.00;;;17.90;99.90;;;;;;5048389;28;20224;-78
2023/10/28 12:40:22;;;;;;;1.27;0.70;;;17.90;99.90;;;;;;5047080;28;20208;-78
2023/10/28 12:42:58;;;;;;;2.45;0.73;;;17.80;99.90;;;;;;5044842;28;20217;-78
2023/10/28 12:45:36;;;;;;;2.97;0.90;;;17.80;99.90;;;;;;5045373;28;20223;-78
2023/10/28 12:48:16;;;;;;;4.18;0.88;;;17.80;99.90;;;;;;5049942;28;20215;-78
2023/10/28 12:50:50;;;;;;;3.38;1.00;;;17.70;99.90;;;;;;5051082;28;20200;-78
2023/10/28 12:53:28;;;;;;;6.97;1.45;;;17.60;99.90;;;;;;5053571;28;20421;-79
2023/10/28 12:56:03;;;;;;;2.20;0.80;;;17.60;99.90;;;;;;5031544;28;20323;-78
2023/10/28 12:58:44;;;;;;;3.63;1.00;;;17.60;99.90;;;;;;5048665;28;20258;-79
2023/10/28 13:01:19;;;;;;;3.60;0.80;;;17.70;99.90;;;;;;5031548;28;20255;-79
2023/10/28 13:03:58;;;;;;;3.10;1.00;;;17.70;99.90;;;;;;5046963;28;20390;-78
2023/10/28 13:06:36;;;;;;;1.85;0.80;;;17.70;99.90;;;;;;5051565;28;20216;-78
2023/10/28 13:09:15;;;;;;;3.30;1.00;;;17.70;99.90;;;;;;5048124;28;20204;-79
2023/10/28 13:11:48;;;;;;;4.20;1.02;;;17.60;99.90;;;;;;5034192;28;20201;-78
2023/10/28 13:14:28;;;;;;;2.63;0.75;;;17.50;99.90;;;;;;5034706;28;20241;-78
2023/10/28 13:17:02;;;;;;;2.13;0.82;;;17.60;99.90;;;;;;5040823;28;20221;-78
2023/10/28 13:19:35;;;;;;;2.15;0.80;;;17.60;99.90;;;;;;5045885;28;20611;-78
2023/10/28 13:22:08;;;;;;;2.78;0.90;;;17.50;99.90;;;;;;5048629;28;20192;-78
2023/10/28 13:24:43;;;;;;;2.33;1.00;;;17.50;99.90;;;;;;5048718;28;20282;-78
2023/10/28 13:27:15;;;;;;;2.75;0.85;;;17.50;99.90;;;;;;5041148;28;20228;-78
2023/10/28 13:29:53;;;;;;;2.75;1.13;;;17.50;99.90;;;;;;5047816;28;20193;-79
2023/10/28 13:32:32;;;;;;;3.28;1.10;;;17.50;99.90;;;;;;5048989;28;20210;-78
2023/10/28 13:35:12;;;;;;;2.92;1.23;;;17.50;99.90;;;;;;5048894;28;20204;-78
2023/10/28 13:37:47;;;;;;;2.15;0.90;;;17.60;99.90;;;;;;5048174;28;20619;-77
2023/10/28 13:40:19;;;;;;;4.38;1.05;;;17.50;99.90;;;;;;5049363;28;20279;-78
2023/10/28 13:43:03;;;;;;;1.73;0.82;;;17.50;99.90;;;;;;5049826;28;20596;-77
2023/10/28 13:45:42;;;;;;;3.80;0.98;;;17.50;99.90;;;;;;5036880;28;20261;-79
2023/10/28 13:48:17;;;;;;;2.42;0.93;;;17.40;99.90;;;;;;5032277;28;20279;-79
2023/10/28 13:50:50;;;;;;;1.48;0.88;;;17.40;99.90;;;;;;5047699;28;20208;-80
2023/10/28 13:53:23;;;;;;;2.90;0.93;;;17.40;99.90;;;;;;5051765;28;20657;-79
2023/10/28 13:56:06;;;;;;;1.48;0.70;;;17.30;99.90;;;;;;5051112;28;20204;-79
2023/10/28 13:58:38;;;;;;;2.67;0.88;;;17.30;99.90;;;;;;5052936;28;20208;-78
2023/10/28 14:01:18;;;;;;;3.47;1.20;;;17.30;99.90;;;;;;5046804;28;20207;-77
2023/10/28 14:03:51;;;;;;;2.20;0.68;;;17.30;99.90;;;;;;5053442;28;20200;-79
2023/10/28 14:06:26;;;;;;;5.05;0.90;;;17.20;99.90;;;;;;5053750;28;20562;-78
2023/10/28 14:09:02;;;;;;;2.72;0.90;;;17.20;99.90;;;;;;5036522;28;20261;-78
2023/10/28 14:11:39;;;;;;;2.47;1.00;;;17.20;99.90;;;;;;5055085;28;20204;-80
2023/10/28 14:14:14;;;;;;;2.97;0.85;;;17.10;99.90;;;;;;5041498;28;20315;-79
2023/10/28 14:16:52;;;;;;;3.72;0.75;;;17.10;99.90;;;;;;5028732;28;20638;-78
2023/10/28 14:19:33;;;;;;;2.55;0.90;;;17.10;99.90;;;;;;5031509;28;20353;-79
2023/10/28 14:22:05;;;;;;;1.75;0.55;;;17.00;99.90;;;;;;5031119;28;20204;-78
2023/10/28 14:24:39;;;;;;;2.15;0.85;;;17.10;99.90;;;;;;5017886;28;20222;-78